Time;durP1;ratioP1;P1;durP2;ratioP2;P2;SDS_P1;SDS_P2;PMS_P1;PMS_P2;Temp;Humidity;BMP_temperature;BMP_pressure;BME280_temperature;BME280_humidity;BME280_pressure;Samples;Min_cycle;Max_cycle;Signal;HPM_P1;HPM_P2
2022/07/11 00:00:29;;;;;;;7.15;3.80;;;;;;;19.91;55.38;101689.69;683049;28;1510;-76
2022/07/11 00:00:53;;;;;;;4.65;4.07;;;;;;;19.87;55.16;101687.88;671879;29;1362;-76
2022/07/11 00:03:29;;;;;;;8.10;3.80;;;;;;;19.86;55.41;101680.81;670400;29;1861;-78
2022/07/11 00:03:51;;;;;;;5.93;3.88;;;;;;;19.88;55.23;101679.09;668176;29;1224;-77
2022/07/11 00:04:13;;;;;;;5.65;3.80;;;;;;;19.85;55.35;101676.38;666930;29;1376;-77
2022/07/11 00:04:37;;;;;;;6.20;3.50;;;;;;;19.87;55.34;101682.59;669325;29;1109;-76
2022/07/11 00:05:01;;;;;;;5.80;3.70;;;;;;;19.91;55.44;101687.03;666720;29;1711;-77
2022/07/11 00:05:26;;;;;;;5.05;3.72;;;;;;;19.90;55.36;101682.63;668333;29;1728;-77
2022/07/11 00:05:47;;;;;;;6.50;4.00;;;;;;;19.87;55.26;101679.94;671792;29;1337;-77
2022/07/11 00:06:10;;;;;;;7.50;4.07;;;;;;;19.85;55.39;101674.63;681280;29;1065;-77
2022/07/11 00:07:05;;;;;;;8.40;4.10;;;;;;;19.91;55.49;101688.81;678685;29;1271;-76
2022/07/11 00:07:39;;;;;;;6.15;3.58;;;;;;;19.84;55.42;101678.16;684221;28;1430;-77
2022/07/11 00:08:06;;;;;;;7.03;4.00;;;;;;;19.84;55.45;101677.25;682852;28;1404;-76
2022/07/11 00:08:29;;;;;;;6.97;4.20;;;;;;;19.85;55.62;101685.22;684932;28;2059;-77
2022/07/11 00:08:52;;;;;;;8.35;4.35;;;;;;;19.82;55.51;101679.03;681625;29;1459;-76
2022/07/11 00:09:17;;;;;;;7.63;4.03;;;;;;;19.80;55.67;101671.06;684651;28;2169;-76
2022/07/11 00:11:40;;;;;;;4.43;3.90;;;;;;;19.77;55.81;101675.47;697400;28;1558;-77
2022/07/11 00:12:12;;;;;;;5.88;4.30;;;;;;;19.79;55.88;101679.03;697254;28;1656;-77
2022/07/11 00:12:34;;;;;;;7.07;4.50;;;;;;;19.75;55.82;101678.13;693033;28;1253;-77
2022/07/11 00:13:07;;;;;;;5.60;4.18;;;;;;;19.75;55.98;101682.53;690452;28;1198;-76
2022/07/11 00:13:29;;;;;;;4.50;3.75;;;;;;;19.77;55.99;101680.75;687142;28;1281;-77
2022/07/11 00:13:53;;;;;;;5.80;4.10;;;;;;;19.68;55.92;101669.25;687865;28;1306;-76
2022/07/11 00:18:23;;;;;;;5.63;4.40;;;;;;;19.64;56.37;101693.06;697619;28;1568;-76
2022/07/11 00:18:47;;;;;;;6.03;4.05;;;;;;;19.57;56.57;101679.81;698640;28;818;-77
2022/07/11 00:19:10;;;;;;;6.22;4.25;;;;;;;19.60;56.36;101684.22;692646;28;1366;-77
2022/07/11 00:20:21;;;;;;;6.40;4.07;;;;;;;19.59;56.54;101687.75;690003;28;1103;-76
2022/07/11 00:20:43;;;;;;;5.50;4.20;;;;;;;19.51;56.60;101678.88;689224;28;1345;-77
2022/07/11 00:21:06;;;;;;;5.35;4.00;;;;;;;19.48;56.73;101670.94;691795;28;1393;-78
2022/07/11 00:21:28;;;;;;;6.22;3.90;;;;;;;19.52;56.64;101676.25;690023;28;1430;-76
2022/07/11 00:21:51;;;;;;;6.40;4.07;;;;;;;19.52;56.69;101676.25;687611;28;1311;-77
2022/07/11 00:22:12;;;;;;;5.50;4.30;;;;;;;19.46;56.75;101668.28;690549;28;1282;-76
2022/07/11 00:24:49;;;;;;;7.15;4.25;;;;;;;19.54;56.81;101687.72;694933;28;1570;-77
2022/07/11 00:25:12;;;;;;;5.28;4.05;;;;;;;19.46;56.75;101681.50;694991;28;1594;-76
2022/07/11 00:26:56;;;;;;;5.38;4.25;;;;;;;19.41;57.06;101684.13;690093;28;1479;-77
2022/07/11 00:27:19;;;;;;;8.80;4.60;;;;;;;19.38;57.09;101670.91;688058;28;1500;-77
2022/07/11 00:27:42;;;;;;;7.80;4.40;;;;;;;19.37;57.15;101677.03;690088;28;1419;-77
2022/07/11 00:28:48;;;;;;;6.70;4.38;;;;;;;19.40;57.15;101685.03;691600;28;1316;-77
2022/07/11 00:29:31;;;;;;;6.57;4.88;;;;;;;19.33;57.21;101680.56;691039;28;1390;-76
2022/07/11 00:29:52;;;;;;;5.65;4.20;;;;;;;19.32;57.28;101678.78;693373;28;1317;-76
2022/07/11 00:32:25;;;;;;;6.70;4.43;;;;;;;19.09;57.80;101674.25;695049;28;1424;-76
2022/07/11 00:32:48;;;;;;;6.82;4.50;;;;;;;19.14;57.89;101680.47;698392;28;1145;-76
2022/07/11 00:33:12;;;;;;;6.03;4.57;;;;;;;19.13;57.86;101678.66;692879;28;1290;-76
2022/07/11 00:33:37;;;;;;;5.32;4.40;;;;;;;19.07;57.89;101678.63;684936;28;1283;-77
2022/07/11 00:34:00;;;;;;;5.32;4.65;;;;;;;19.05;58.10;101669.78;691995;28;1197;-76
2022/07/11 00:34:23;;;;;;;5.30;4.55;;;;;;;19.07;57.96;101677.75;690176;28;1239;-76
2022/07/11 00:34:45;;;;;;;5.53;4.60;;;;;;;18.98;58.21;101673.22;682493;28;1247;-76
2022/07/11 00:35:22;;;;;;;5.10;4.60;;;;;;;19.03;58.42;101677.72;688924;28;1423;-76
2022/07/11 00:35:43;;;;;;;6.13;4.68;;;;;;;19.01;58.64;101678.56;689607;28;1395;-77
2022/07/11 00:36:06;;;;;;;6.57;4.60;;;;;;;18.98;58.36;101678.50;689955;28;1971;-76
2022/07/11 00:36:29;;;;;;;6.90;5.07;;;;;;;18.98;58.45;101673.22;690670;28;1733;-75
2022/07/11 00:36:51;;;;;;;5.30;4.80;;;;;;;19.01;58.37;101675.91;691610;28;1239;-76
2022/07/11 00:37:47;;;;;;;5.97;4.70;;;;;;;19.01;58.53;101684.72;692658;28;1310;-76
2022/07/11 00:39:23;;;;;;;8.13;4.75;;;;;;;18.89;58.80;101676.72;691870;28;1618;-76
2022/07/11 00:39:44;;;;;;;8.43;4.93;;;;;;;18.87;58.63;101670.53;689597;28;1062;-76
2022/07/11 00:40:06;;;;;;;8.80;5.20;;;;;;;18.89;58.75;101674.94;689250;28;1536;-76
2022/07/11 00:40:28;;;;;;;6.22;4.90;;;;;;;18.93;58.63;101685.56;691625;28;1071;-76
2022/07/11 00:40:51;;;;;;;5.63;4.72;;;;;;;18.84;58.73;101671.38;687621;28;1219;-76
2022/07/11 00:41:13;;;;;;;5.10;4.50;;;;;;;18.88;58.80;101678.44;690332;28;1515;-76
2022/07/11 00:41:35;;;;;;;5.28;4.45;;;;;;;18.85;58.97;101678.44;693207;28;945;-76
2022/07/11 00:41:57;;;;;;;6.20;4.15;;;;;;;18.88;58.90;101683.75;687929;28;1050;-76
2022/07/11 00:42:18;;;;;;;6.32;4.53;;;;;;;18.84;58.97;101676.69;683911;28;1663;-76
2022/07/11 00:42:40;;;;;;;7.53;4.80;;;;;;;18.84;59.03;101681.97;687658;28;1387;-76
2022/07/11 00:43:06;;;;;;;7.53;4.80;;;;;;;18.85;58.99;101678.44;689103;28;1563;-76
2022/07/11 00:43:36;;;;;;;8.15;4.65;;;;;;;18.86;58.97;101676.66;692779;28;1262;-76
2022/07/11 00:43:59;;;;;;;7.03;4.65;;;;;;;18.86;58.94;101674.91;687536;28;1200;-76
2022/07/11 00:44:21;;;;;;;6.10;4.50;;;;;;;18.81;58.99;101679.28;687952;28;1600;-76
2022/07/11 00:44:43;;;;;;;5.00;4.50;;;;;;;18.81;59.07;101678.41;685125;28;1089;-76
2022/07/11 00:45:07;;;;;;;4.90;4.50;;;;;;;18.76;59.12;101673.09;686802;28;1610;-76
2022/07/11 00:45:29;;;;;;;6.10;4.40;;;;;;;18.78;59.05;101681.91;684702;28;1272;-76
2022/07/11 00:45:51;;;;;;;6.72;4.50;;;;;;;18.71;59.07;101672.16;687503;28;1152;-76
2022/07/11 00:46:13;;;;;;;5.65;4.30;;;;;;;18.73;59.17;101679.22;686414;28;1496;-76
2022/07/11 00:46:36;;;;;;;4.95;4.45;;;;;;;18.67;59.25;101673.00;687480;28;1040;-76
2022/07/11 00:46:59;;;;;;;4.60;4.20;;;;;;;18.65;59.31;101670.34;690317;28;1245;-76
2022/07/11 00:47:21;;;;;;;4.90;4.30;;;;;;;18.62;59.36;101668.56;690120;28;1441;-76
2022/07/11 00:47:43;;;;;;;5.85;4.40;;;;;;;18.59;59.61;101662.34;685330;28;1295;-76
2022/07/11 00:48:14;;;;;;;7.20;4.85;;;;;;;18.59;59.50;101667.63;684564;28;1555;-77
2022/07/11 00:48:36;;;;;;;6.57;5.00;;;;;;;18.59;59.60;101676.47;686211;28;872;-76
2022/07/11 00:49:00;;;;;;;5.97;4.90;;;;;;;18.57;59.55;101677.31;688464;28;1235;-76
2022/07/11 00:49:23;;;;;;;5.88;4.82;;;;;;;18.53;59.56;101671.13;690295;28;855;-76
2022/07/11 00:49:45;;;;;;;7.32;4.90;;;;;;;18.50;59.81;101666.69;686990;28;2007;-76
2022/07/11 00:50:09;;;;;;;7.63;5.07;;;;;;;18.53;59.86;101673.75;687024;28;1902;-76
2022/07/11 00:50:31;;;;;;;8.57;5.25;;;;;;;18.50;59.99;101671.97;684995;28;1063;-76
2022/07/11 00:50:54;;;;;;;8.57;5.40;;;;;;;18.52;59.94;101684.31;687535;28;1254;-76
2022/07/11 00:51:22;;;;;;;7.35;4.90;;;;;;;18.52;59.92;101682.56;692726;28;1343;-76
2022/07/11 00:51:45;;;;;;;6.68;4.70;;;;;;;18.45;59.95;101672.81;693316;28;816;-76
2022/07/11 00:52:10;;;;;;;6.43;4.88;;;;;;;18.48;60.18;101683.41;689776;28;1478;-76
2022/07/11 00:52:33;;;;;;;5.10;4.60;;;;;;;18.46;60.28;101674.56;687346;28;1352;-76
2022/07/11 00:52:57;;;;;;;7.57;5.10;;;;;;;18.41;60.19;101668.34;688698;28;1040;-76
2022/07/11 00:53:21;;;;;;;7.35;5.30;;;;;;;18.47;60.14;101681.63;687094;28;1520;-76
2022/07/11 00:53:43;;;;;;;5.45;4.90;;;;;;;18.43;60.27;101674.56;690472;28;1086;-76
2022/07/11 00:54:10;;;;;;;5.60;4.80;;;;;;;18.44;60.21;101676.31;691639;28;1427;-76
2022/07/11 00:54:31;;;;;;;7.00;4.72;;;;;;;18.42;60.42;101680.69;692432;28;1223;-76
2022/07/11 00:54:53;;;;;;;7.05;4.75;;;;;;;18.41;60.29;101682.47;690203;28;1453;-76
2022/07/11 00:55:17;;;;;;;6.30;4.75;;;;;;;18.36;60.44;101671.84;689889;28;2095;-77
2022/07/11 00:55:42;;;;;;;7.10;5.10;;;;;;;18.36;60.48;101674.50;690323;28;931;-76
2022/07/11 00:56:08;;;;;;;9.65;5.60;;;;;;;18.41;60.39;101686.84;689961;28;1244;-76
2022/07/11 00:56:31;;;;;;;9.80;5.60;;;;;;;18.31;60.60;101670.91;690148;28;1343;-77
2022/07/11 00:56:54;;;;;;;7.28;5.40;;;;;;;18.32;60.60;101672.69;692076;28;1173;-76
2022/07/11 00:57:17;;;;;;;6.70;5.40;;;;;;;18.35;60.32;101672.72;687691;28;2127;-76
2022/07/11 00:57:40;;;;;;;6.50;5.50;;;;;;;18.40;60.50;101680.69;684639;28;1328;-76
2022/07/11 00:58:04;;;;;;;6.63;5.30;;;;;;;18.38;60.50;101676.25;692324;28;1423;-77
2022/07/11 00:58:27;;;;;;;7.70;5.38;;;;;;;18.39;60.73;101675.38;692411;28;1032;-77
2022/07/11 00:58:48;;;;;;;7.60;5.35;;;;;;;18.36;60.58;101671.84;689672;28;1120;-76
2022/07/11 00:59:10;;;;;;;7.65;5.45;;;;;;;18.37;60.67;101670.06;688722;28;2138;-76
2022/07/11 00:59:36;;;;;;;8.20;5.30;;;;;;;18.39;60.55;101681.56;689071;28;1295;-76
2022/07/11 00:59:56;;;;;;;9.80;4.97;;;;;;;18.36;60.56;101676.22;694764;28;883;-76
2022/07/11 01:00:18;;;;;;;9.95;5.10;;;;;;;18.39;60.90;101678.94;695278;28;2192;-76
2022/07/11 01:00:41;;;;;;;6.07;5.03;;;;;;;18.36;60.44;101674.50;687167;28;1298;-76
2022/07/11 01:01:05;;;;;;;6.90;5.22;;;;;;;18.38;60.66;101668.34;680917;29;1550;-76
2022/07/11 01:01:28;;;;;;;5.78;4.95;;;;;;;18.33;60.70;101663.88;686261;28;1395;-76
2022/07/11 01:01:51;;;;;;;5.80;5.20;;;;;;;18.31;60.48;101664.75;689459;28;1263;-76
2022/07/11 01:02:15;;;;;;;6.88;5.63;;;;;;;18.32;60.64;101663.88;692307;28;1527;-77
2022/07/11 01:02:37;;;;;;;8.93;6.10;;;;;;;18.28;60.74;101670.88;692730;28;1302;-76
2022/07/11 01:02:59;;;;;;;8.05;6.10;;;;;;;18.25;60.60;101665.56;689259;28;1230;-76
2022/07/11 01:03:22;;;;;;;8.30;5.80;;;;;;;18.22;60.82;101663.75;685015;28;1502;-76
2022/07/11 01:03:45;;;;;;;8.60;5.40;;;;;;;18.28;60.84;101673.53;690848;28;1263;-76
2022/07/11 01:04:08;;;;;;;8.75;5.57;;;;;;;18.24;60.70;101663.78;692981;28;1225;-76
2022/07/11 01:04:30;;;;;;;8.35;5.40;;;;;;;18.30;61.06;101678.81;690518;28;1678;-75
2022/07/11 01:04:52;;;;;;;8.93;5.38;;;;;;;18.23;60.96;101662.03;687992;28;1260;-76
2022/07/11 01:05:13;;;;;;;9.13;5.10;;;;;;;18.21;60.87;101669.06;686777;28;1302;-76
2022/07/11 01:05:37;;;;;;;8.15;5.30;;;;;;;18.23;60.73;101677.88;693153;28;1241;-76
2022/07/11 01:05:59;;;;;;;8.10;5.50;;;;;;;18.20;61.01;101672.56;692069;28;1323;-76
2022/07/11 01:06:20;;;;;;;6.97;5.38;;;;;;;18.17;61.05;101673.41;685649;28;2324;-78
2022/07/11 01:06:43;;;;;;;7.78;5.45;;;;;;;18.17;61.22;101672.50;685032;28;1203;-77
2022/07/11 01:07:04;;;;;;;9.00;5.68;;;;;;;18.13;61.42;101670.69;687852;28;1294;-76
2022/07/11 01:07:25;;;;;;;8.95;5.72;;;;;;;18.14;61.21;101672.47;684932;28;1112;-76
2022/07/11 01:07:53;;;;;;;8.75;5.72;;;;;;;18.16;61.24;101676.94;690664;28;1178;-76
2022/07/11 01:08:15;;;;;;;8.40;5.80;;;;;;;18.14;61.31;101683.03;689422;28;1432;-76
2022/07/11 01:08:40;;;;;;;7.22;5.50;;;;;;;18.13;61.29;101676.84;686998;28;1857;-76
2022/07/11 01:09:03;;;;;;;7.90;5.60;;;;;;;18.15;61.29;101674.25;685215;28;1184;-76
2022/07/11 01:09:25;;;;;;;9.35;5.60;;;;;;;18.15;60.98;101676.91;690002;28;1263;-77
2022/07/11 01:09:51;;;;;;;9.50;5.50;;;;;;;18.07;61.36;101672.38;687888;28;1973;-76
2022/07/11 01:10:15;;;;;;;9.15;5.47;;;;;;;18.06;61.33;101670.63;690441;28;1361;-76
2022/07/11 01:10:37;;;;;;;7.70;5.30;;;;;;;18.08;61.52;101674.16;693437;28;1177;-76
2022/07/11 01:11:18;;;;;;;7.95;5.45;;;;;;;18.06;61.58;101669.72;688579;28;1111;-76
2022/07/11 01:11:40;;;;;;;6.63;5.65;;;;;;;18.08;61.42;101682.06;693210;28;1241;-76
2022/07/11 01:12:03;;;;;;;7.03;5.60;;;;;;;18.03;61.55;101661.78;690638;28;1510;-76
2022/07/11 01:12:28;;;;;;;8.82;5.70;;;;;;;18.08;61.49;101679.44;690997;28;1732;-76
2022/07/11 01:12:52;;;;;;;12.32;6.00;;;;;;;18.01;61.60;101669.66;684910;28;1226;-76
2022/07/11 01:13:16;;;;;;;12.38;6.00;;;;;;;17.99;61.55;101671.41;682607;28;1554;-76
2022/07/11 01:13:42;;;;;;;11.00;6.50;;;;;;;18.01;61.67;101677.59;684386;28;1320;-76
2022/07/11 01:14:03;;;;;;;8.90;6.15;;;;;;;18.01;61.73;101671.44;686988;28;2017;-75
2022/07/11 01:14:26;;;;;;;9.00;5.68;;;;;;;18.00;61.74;101674.97;687070;28;1304;-76
2022/07/11 01:14:55;;;;;;;9.30;5.50;;;;;;;17.99;61.76;101667.88;687806;28;1321;-77
2022/07/11 01:15:18;;;;;;;8.90;5.50;;;;;;;17.97;61.90;101673.16;687750;28;1429;-76
2022/07/11 01:15:42;;;;;;;8.95;5.47;;;;;;;17.95;61.87;101666.97;690263;28;1500;-76
2022/07/11 01:16:14;;;;;;;8.13;5.43;;;;;;;17.97;62.08;101670.53;693581;28;1677;-76
2022/07/11 01:16:39;;;;;;;7.80;6.03;;;;;;;17.96;62.04;101668.75;690919;28;1080;-77
2022/07/11 01:17:04;;;;;;;8.40;6.20;;;;;;;17.94;62.22;101667.81;689093;28;1375;-76
2022/07/11 01:17:30;;;;;;;7.57;6.00;;;;;;;17.90;62.17;101668.66;682309;28;1494;-76
2022/07/11 01:17:53;;;;;;;8.77;5.70;;;;;;;17.94;62.29;101673.09;688646;28;1435;-76
2022/07/11 01:18:15;;;;;;;9.00;5.90;;;;;;;17.94;62.29;101675.75;690651;28;1618;-76
2022/07/11 01:18:39;;;;;;;10.10;6.05;;;;;;;17.94;62.25;101665.19;687061;28;1159;-76
2022/07/11 01:19:02;;;;;;;9.60;5.85;;;;;;;17.93;62.29;101668.69;684388;28;1311;-78
2022/07/11 01:19:25;;;;;;;9.02;5.85;;;;;;;17.95;62.13;101659.06;687887;28;1079;-79
2022/07/11 01:19:49;;;;;;;7.35;5.80;;;;;;;18.01;62.24;101682.88;686835;28;1266;-78
2022/07/11 01:20:13;;;;;;;7.88;5.95;;;;;;;17.96;62.02;101674.03;691950;28;2217;-78
2022/07/11 01:20:33;;;;;;;8.48;5.47;;;;;;;17.92;62.14;101661.66;688859;28;1458;-79
2022/07/11 01:20:54;;;;;;;8.63;5.50;;;;;;;17.92;62.05;101664.28;692413;28;1299;-78
2022/07/11 01:22:27;;;;;;;11.27;5.90;;;;;;;17.95;62.07;101682.81;687816;28;1584;-76
2022/07/11 01:22:53;;;;;;;9.93;6.00;;;;;;;17.94;62.33;101678.38;693360;28;1218;-75
2022/07/11 01:23:15;;;;;;;9.75;6.10;;;;;;;17.87;62.28;101665.97;687466;28;1253;-76
2022/07/11 01:23:37;;;;;;;9.23;6.18;;;;;;;17.89;62.25;101677.47;687721;28;1154;-76
2022/07/11 01:24:01;;;;;;;9.48;6.07;;;;;;;17.84;62.30;101658.94;687999;28;1220;-76
2022/07/11 01:24:25;;;;;;;9.18;6.20;;;;;;;17.89;62.34;101673.06;687808;28;2082;-76
2022/07/11 01:24:48;;;;;;;8.35;6.18;;;;;;;17.90;62.30;101674.81;687987;28;808;-76
2022/07/11 01:25:10;;;;;;;9.40;6.20;;;;;;;17.87;62.44;101673.91;690752;28;996;-76
2022/07/11 01:25:34;;;;;;;9.02;6.00;;;;;;;17.81;62.39;101665.06;689795;28;1136;-76
2022/07/11 01:25:58;;;;;;;8.68;6.20;;;;;;;17.90;62.48;101673.94;684389;28;1369;-76
2022/07/11 01:26:23;;;;;;;10.15;6.20;;;;;;;17.88;62.50;101671.28;683781;28;1203;-75
2022/07/11 01:26:47;;;;;;;9.60;6.00;;;;;;;17.88;62.51;101675.69;687913;28;1294;-76
2022/07/11 01:27:10;;;;;;;11.57;6.43;;;;;;;17.83;62.48;101661.53;688639;28;1279;-76
2022/07/11 01:27:36;;;;;;;10.07;6.10;;;;;;;17.83;62.58;101661.53;691547;28;1507;-76
2022/07/11 01:28:03;;;;;;;8.38;6.00;;;;;;;17.88;62.54;101675.69;688521;28;1940;-76
2022/07/11 01:28:26;;;;;;;8.55;5.85;;;;;;;17.83;62.56;101672.09;692179;28;1340;-75
2022/07/11 01:28:50;;;;;;;10.80;6.10;;;;;;;17.81;62.52;101665.06;688151;28;1467;-76
2022/07/11 01:29:14;;;;;;;10.07;6.10;;;;;;;17.79;62.75;101665.91;684112;28;2126;-76
2022/07/11 01:29:36;;;;;;;8.63;6.30;;;;;;;17.81;62.49;101672.06;682187;29;1956;-76
2022/07/11 01:29:59;;;;;;;8.20;5.95;;;;;;;17.76;62.67;101665.88;683743;28;1108;-76
2022/07/11 01:30:22;;;;;;;8.38;6.00;;;;;;;17.80;62.50;101679.13;681125;29;1692;-76
2022/07/11 01:30:44;;;;;;;8.63;6.50;;;;;;;17.75;62.77;101664.97;688004;28;1230;-76
2022/07/11 01:31:06;;;;;;;9.25;6.90;;;;;;;17.78;62.92;101670.28;691998;28;2260;-75
2022/07/11 01:31:28;;;;;;;9.07;6.63;;;;;;;17.74;62.92;101673.75;689150;28;1733;-75
2022/07/11 01:31:50;;;;;;;8.70;6.30;;;;;;;17.76;62.86;101674.66;693632;28;1331;-76
2022/07/11 01:32:12;;;;;;;7.10;5.80;;;;;;;17.75;63.01;101675.53;687665;28;2263;-76
2022/07/11 01:32:35;;;;;;;9.15;5.60;;;;;;;17.74;62.80;101668.47;690733;28;1195;-77
2022/07/11 01:33:03;;;;;;;8.68;5.40;;;;;;;17.74;63.00;101670.22;689301;28;1707;-76
2022/07/11 01:33:26;;;;;;;8.25;5.90;;;;;;;17.71;62.93;101657.91;690417;28;1265;-76
2022/07/11 01:33:53;;;;;;;8.80;6.22;;;;;;;17.75;63.12;101675.53;688906;28;1565;-76
2022/07/11 01:34:15;;;;;;;9.10;6.45;;;;;;;17.72;63.01;101667.59;684941;28;1563;-76
2022/07/11 01:34:38;;;;;;;8.63;6.00;;;;;;;17.77;63.05;101679.06;684558;28;1429;-76
2022/07/11 01:35:01;;;;;;;8.40;5.90;;;;;;;17.71;63.08;101663.19;688972;28;1562;-77
2022/07/11 01:35:24;;;;;;;8.23;5.88;;;;;;;17.76;62.96;101669.38;688161;28;1295;-76
2022/07/11 01:35:46;;;;;;;9.15;6.00;;;;;;;17.74;63.14;101662.31;689888;28;1305;-76
2022/07/11 01:36:08;;;;;;;10.15;6.25;;;;;;;17.75;62.82;101664.97;689619;28;1324;-77
2022/07/11 01:36:32;;;;;;;11.57;6.55;;;;;;;17.74;62.84;101665.84;690760;28;1137;-76
2022/07/11 01:36:54;;;;;;;13.00;6.50;;;;;;;17.75;62.93;101670.25;692548;28;1405;-76
2022/07/11 01:37:16;;;;;;;12.45;6.10;;;;;;;17.74;63.00;101665.84;690289;28;1864;-76
2022/07/11 01:37:38;;;;;;;14.95;6.28;;;;;;;17.70;62.96;101658.75;688112;28;1446;-76
2022/07/11 01:37:59;;;;;;;11.63;6.47;;;;;;;17.72;62.99;101664.03;690700;28;1317;-76
2022/07/11 01:38:21;;;;;;;12.38;6.97;;;;;;;17.75;63.12;101670.25;687304;28;1276;-75
2022/07/11 01:38:42;;;;;;;8.55;6.35;;;;;;;17.72;63.02;101662.31;687991;28;1306;-76
2022/07/11 01:39:06;;;;;;;8.27;6.05;;;;;;;17.76;62.92;101672.03;685258;28;1230;-76
2022/07/11 01:39:29;;;;;;;7.30;6.00;;;;;;;17.71;63.01;101663.19;687518;28;1160;-76
2022/07/11 01:39:52;;;;;;;7.70;5.97;;;;;;;17.73;63.18;101665.81;690366;28;1207;-76
2022/07/11 01:40:16;;;;;;;9.43;6.22;;;;;;;17.76;63.09;101672.03;690039;28;1215;-76
2022/07/11 01:40:39;;;;;;;9.88;6.18;;;;;;;17.74;63.04;101668.47;692923;28;1218;-76
2022/07/11 01:41:02;;;;;;;9.98;6.05;;;;;;;17.68;63.19;101658.75;687790;28;1202;-76
2022/07/11 01:41:24;;;;;;;9.27;5.95;;;;;;;17.76;63.20;101671.16;690287;28;1224;-76
2022/07/11 01:41:47;;;;;;;7.70;6.00;;;;;;;17.71;63.14;101667.56;695431;28;1415;-76
2022/07/11 01:42:09;;;;;;;7.68;5.80;;;;;;;17.72;63.11;101669.31;692171;28;1261;-76
2022/07/11 01:42:31;;;;;;;8.38;6.10;;;;;;;17.72;63.04;101659.66;688128;28;1052;-76
2022/07/11 01:42:53;;;;;;;8.50;6.03;;;;;;;17.73;63.13;101665.81;690090;28;1357;-76
2022/07/11 01:43:17;;;;;;;7.47;6.03;;;;;;;17.68;63.18;101655.19;695163;28;1358;-76
2022/07/11 01:43:39;;;;;;;7.18;5.78;;;;;;;17.69;63.17;101664.88;689015;28;2248;-76
2022/07/11 01:44:01;;;;;;;7.72;6.05;;;;;;;17.74;63.31;101665.84;690451;28;1839;-76
2022/07/11 01:44:24;;;;;;;8.15;6.00;;;;;;;17.68;63.15;101658.75;687805;28;1461;-76
2022/07/11 01:46:04;;;;;;;8.45;6.05;;;;;;;17.72;63.15;101669.31;684827;28;1353;-76
2022/07/11 01:46:25;;;;;;;8.70;6.30;;;;;;;17.67;63.25;101666.63;685018;28;1111;-76
2022/07/11 01:46:47;;;;;;;11.48;6.60;;;;;;;17.69;63.28;101659.59;688222;28;1437;-76
2022/07/11 01:47:11;;;;;;;12.32;6.70;;;;;;;17.63;63.37;101655.16;692904;28;2034;-76
2022/07/11 01:47:38;;;;;;;9.98;6.40;;;;;;;17.69;63.42;101670.16;690642;28;1133;-76
2022/07/11 01:48:14;;;;;;;8.73;6.20;;;;;;;17.66;63.46;101659.59;690735;28;1287;-75
2022/07/11 01:48:36;;;;;;;9.07;6.50;;;;;;;17.66;63.65;101665.72;685309;28;1369;-76
2022/07/11 01:48:58;;;;;;;7.50;6.25;;;;;;;17.67;63.59;101671.91;687886;28;1333;-75
2022/07/11 01:49:20;;;;;;;7.73;6.00;;;;;;;17.66;63.70;101662.22;687429;28;1040;-76
2022/07/11 01:49:42;;;;;;;7.95;5.88;;;;;;;17.72;63.44;101667.59;691421;28;1912;-76
2022/07/11 01:50:07;;;;;;;7.50;5.78;;;;;;;17.70;63.36;101657.88;685092;28;1232;-76
2022/07/11 01:50:32;;;;;;;6.90;6.00;;;;;;;17.72;63.50;101651.75;690804;28;1059;-76
2022/07/11 01:50:54;;;;;;;7.85;6.10;;;;;;;17.74;63.51;101663.19;691307;28;1187;-76
2022/07/11 01:51:18;;;;;;;8.00;6.00;;;;;;;17.79;63.49;101666.81;690053;28;1390;-76
2022/07/11 01:51:39;;;;;;;8.40;5.90;;;;;;;17.75;63.42;101659.69;689592;28;1208;-75
2022/07/11 01:52:00;;;;;;;8.38;6.03;;;;;;;17.78;63.48;101662.34;684970;28;1041;-76
2022/07/11 01:52:22;;;;;;;11.57;6.40;;;;;;;17.86;63.37;101667.75;692340;28;1339;-75
2022/07/11 01:52:56;;;;;;;12.90;6.68;;;;;;;17.83;63.40;101656.25;690066;28;1436;-76
2022/07/11 01:53:17;;;;;;;11.65;6.38;;;;;;;17.90;63.31;101664.25;685156;28;1510;-76
2022/07/11 01:53:40;;;;;;;8.23;6.07;;;;;;;17.90;63.56;101658.09;685256;28;1639;-76
2022/07/11 01:54:03;;;;;;;12.57;6.53;;;;;;;17.94;63.32;101662.53;691908;28;1099;-76
2022/07/11 01:54:27;;;;;;;12.07;6.32;;;;;;;17.91;63.38;101659.88;692766;28;1174;-76
2022/07/11 01:54:51;;;;;;;8.10;5.80;;;;;;;18.00;63.33;101659.09;690457;28;1719;-76
2022/07/11 01:55:13;;;;;;;7.68;5.70;;;;;;;17.98;63.33;101656.44;684894;28;1361;-76
2022/07/11 01:55:36;;;;;;;7.60;5.75;;;;;;;18.00;63.17;101659.97;685282;28;1155;-76
2022/07/11 01:55:58;;;;;;;7.90;5.70;;;;;;;18.04;62.99;101659.16;687156;28;1316;-75
2022/07/11 01:56:22;;;;;;;7.75;5.50;;;;;;;18.04;63.03;101656.50;687281;28;1206;-76
2022/07/11 01:56:44;;;;;;;6.95;5.30;;;;;;;18.07;62.76;101656.53;692168;28;1613;-75
2022/07/11 01:57:06;;;;;;;8.15;5.53;;;;;;;18.12;62.65;101658.34;692865;28;1158;-76
2022/07/11 01:57:29;;;;;;;9.40;5.93;;;;;;;18.11;62.94;101648.63;690542;28;1174;-76
2022/07/11 01:58:09;;;;;;;8.25;6.15;;;;;;;18.17;62.60;101662.84;689684;28;1129;-76
2022/07/11 01:58:46;;;;;;;8.50;6.05;;;;;;;18.22;62.74;101662.91;689857;28;1701;-76
2022/07/11 01:59:07;;;;;;;11.25;6.10;;;;;;;18.21;62.56;101650.56;690378;28;1356;-76
2022/07/11 01:59:31;;;;;;;10.23;5.90;;;;;;;18.29;62.37;101662.09;687332;28;1168;-75
2022/07/11 01:59:52;;;;;;;8.45;5.70;;;;;;;18.25;62.42;101654.97;684564;28;1203;-75
2022/07/11 02:00:14;;;;;;;6.50;5.60;;;;;;;18.28;62.36;101657.69;687815;28;1533;-76
2022/07/11 02:00:36;;;;;;;7.68;5.80;;;;;;;18.30;62.20;101653.28;690097;28;1347;-76
2022/07/11 02:00:59;;;;;;;14.45;6.90;;;;;;;18.29;62.32;101646.22;690616;28;1300;-76
2022/07/11 02:01:21;;;;;;;14.25;6.72;;;;;;;18.29;62.30;101655.91;693018;28;1348;-76
2022/07/11 02:01:44;;;;;;;10.88;6.30;;;;;;;18.31;62.23;101655.06;693146;28;1790;-76
2022/07/11 02:02:06;;;;;;;8.93;5.50;;;;;;;18.38;62.05;101661.28;685091;28;1219;-76
2022/07/11 02:02:29;;;;;;;9.15;5.10;;;;;;;18.33;61.96;101653.31;684914;28;1732;-76
2022/07/11 02:02:52;;;;;;;8.75;5.13;;;;;;;18.35;62.15;101655.97;685268;28;1236;-76
2022/07/11 02:03:16;;;;;;;10.10;5.57;;;;;;;18.36;62.16;101647.16;688128;28;1141;-76
2022/07/11 02:03:39;;;;;;;9.50;5.70;;;;;;;18.41;62.11;101661.31;687930;28;1257;-76
2022/07/11 02:04:02;;;;;;;9.68;5.70;;;;;;;18.44;62.06;101665.75;687894;28;1250;-76
2022/07/11 02:04:24;;;;;;;7.85;5.60;;;;;;;18.45;61.91;101662.25;687859;28;1361;-76
2022/07/11 02:04:46;;;;;;;8.82;5.80;;;;;;;18.38;62.06;101647.19;688176;28;736;-76
2022/07/11 02:05:08;;;;;;;8.20;5.65;;;;;;;18.42;62.09;101656.91;687166;28;1720;-76
2022/07/11 02:05:29;;;;;;;7.15;5.55;;;;;;;18.43;61.78;101653.41;685406;28;1055;-76
2022/07/11 02:05:51;;;;;;;6.20;5.60;;;;;;;18.42;61.86;101646.34;690614;28;1232;-76
2022/07/11 02:06:13;;;;;;;6.53;5.75;;;;;;;18.44;62.04;101655.19;685160;28;1659;-76
2022/07/11 02:06:37;;;;;;;6.72;5.68;;;;;;;18.47;61.75;101655.19;685217;28;1049;-76
2022/07/11 02:07:03;;;;;;;7.40;5.70;;;;;;;18.44;61.92;101655.19;685128;28;1357;-76
2022/07/11 02:08:11;;;;;;;8.55;5.57;;;;;;;18.45;61.68;101652.53;687173;28;1345;-76
2022/07/11 02:08:33;;;;;;;9.65;5.70;;;;;;;18.47;61.81;101656.09;682477;29;1163;-76
2022/07/11 02:08:55;;;;;;;9.73;5.90;;;;;;;18.45;61.80;101655.19;686437;28;1045;-76
2022/07/11 02:09:17;;;;;;;7.75;5.60;;;;;;;18.46;61.71;101654.34;682318;28;1371;-76
2022/07/11 02:09:39;;;;;;;7.72;5.53;;;;;;;18.47;61.78;101656.09;686599;28;1924;-76
2022/07/11 02:10:00;;;;;;;8.13;5.85;;;;;;;18.47;61.63;101657.84;685246;28;1250;-76
2022/07/11 02:10:22;;;;;;;9.57;6.10;;;;;;;18.50;61.71;101650.81;690661;28;1461;-76
2022/07/11 02:10:49;;;;;;;10.20;5.90;;;;;;;18.55;61.76;101672.00;690566;28;1342;-76
2022/07/11 02:11:11;;;;;;;9.55;5.50;;;;;;;18.50;61.72;101660.50;684547;28;1606;-76
2022/07/11 02:11:33;;;;;;;7.53;5.57;;;;;;;18.56;61.54;101660.56;687603;28;1719;-76
2022/07/11 02:11:55;;;;;;;7.22;5.47;;;;;;;18.54;61.67;101656.13;689891;28;1151;-76
2022/07/11 02:12:22;;;;;;;8.00;5.40;;;;;;;18.56;61.59;101660.56;684898;28;1536;-76
2022/07/11 02:12:43;;;;;;;8.32;5.43;;;;;;;18.55;61.37;101653.50;689576;28;1655;-75
2022/07/11 02:13:06;;;;;;;7.55;5.65;;;;;;;18.57;61.60;101657.03;689683;28;1253;-76
2022/07/11 02:13:28;;;;;;;8.05;5.68;;;;;;;18.55;61.33;101658.78;682399;29;1118;-76